createdAt,value
2023-03-08T00:00:29.901Z,6.04
2023-03-08T00:05:57.022Z,6.01
2023-03-08T00:08:28.124Z,6.05
2023-03-08T00:10:59.941Z,6.04
2023-03-08T00:13:34.280Z,6.05
2023-03-08T00:16:11.955Z,6.03
2023-03-08T00:18:43.529Z,6.02
2023-03-08T00:21:16.741Z,6.01
2023-03-08T00:23:53.486Z,6.01
2023-03-08T00:26:42.174Z,5.99
2023-03-08T00:29:22.101Z,5.96
2023-03-08T00:32:16.192Z,5.98
2023-03-08T00:35:00.874Z,5.94
2023-03-08T00:38:00.651Z,5.98
2023-03-08T00:43:28.430Z,5.94
2023-03-08T00:46:14.281Z,5.95
2023-03-08T00:48:58.965Z,5.91
2023-03-08T00:51:45.040Z,5.93
2023-03-08T00:54:17.364Z,5.92
2023-03-08T00:56:56.146Z,5.93
2023-03-08T00:59:31.330Z,5.95
2023-03-08T01:02:08.472Z,5.92
2023-03-08T01:04:54.301Z,5.94
2023-03-08T01:10:24.756Z,5.93
2023-03-08T01:13:15.539Z,5.93
2023-03-08T01:16:15.706Z,5.91
2023-03-08T01:21:41.911Z,5.93
2023-03-08T01:24:11.983Z,5.91
2023-03-08T01:26:46.652Z,5.91
2023-03-08T01:29:19.153Z,5.92
2023-03-08T01:31:50.286Z,5.90
2023-03-08T01:34:32.811Z,5.86
2023-03-08T01:37:17.613Z,5.88
2023-03-08T01:39:49.218Z,5.89
2023-03-08T01:42:28.242Z,5.93
2023-03-08T01:45:13.187Z,5.93
2023-03-08T01:47:56.258Z,5.85
2023-03-08T01:50:34.826Z,5.88
2023-03-08T01:53:09.626Z,5.91
2023-03-08T01:55:42.603Z,5.87
2023-03-08T01:58:09.375Z,5.83
2023-03-08T02:00:38.316Z,5.83
2023-03-08T02:03:07.682Z,5.78
2023-03-08T02:05:36.625Z,5.72
2023-03-08T02:08:03.280Z,5.73
2023-03-08T02:10:30.077Z,5.71
2023-03-08T02:12:56.784Z,5.67
2023-03-08T02:15:26.940Z,5.69
2023-03-08T02:17:53.703Z,5.62
2023-03-08T02:20:32.529Z,5.63
2023-03-08T02:23:09.359Z,5.64
2023-03-08T02:25:35.970Z,5.64
2023-03-08T02:28:03.539Z,5.58
2023-03-08T02:30:34.216Z,5.56
2023-03-08T02:33:00.887Z,5.57
2023-03-08T02:35:27.846Z,5.56
2023-03-08T02:37:54.577Z,5.54
2023-03-08T02:40:21.390Z,5.56
2023-03-08T02:42:48.142Z,5.49
2023-03-08T02:45:14.987Z,5.52
2023-03-08T02:47:42.554Z,5.55
2023-03-08T02:50:09.571Z,5.55
2023-03-08T02:52:36.233Z,5.54
2023-03-08T02:55:02.959Z,5.49
2023-03-08T02:57:29.627Z,5.49
2023-03-08T02:59:56.418Z,5.48
2023-03-08T03:02:23.168Z,5.50
2023-03-08T03:04:49.976Z,5.49
2023-03-08T03:07:21.609Z,5.51
2023-03-08T03:09:48.472Z,5.46
2023-03-08T03:12:15.455Z,5.52
2023-03-08T03:14:42.276Z,5.49
2023-03-08T03:17:09.132Z,5.49
2023-03-08T03:19:37.434Z,5.47
2023-03-08T03:22:04.397Z,5.47
2023-03-08T03:24:31.176Z,5.39
2023-03-08T03:26:58.019Z,5.42
2023-03-08T03:29:24.870Z,5.35
2023-03-08T03:31:51.613Z,5.36
2023-03-08T03:34:18.387Z,5.31
2023-03-08T03:36:45.260Z,5.21
2023-03-08T03:39:11.981Z,5.19
2023-03-08T03:41:38.694Z,5.15
2023-03-08T03:44:05.594Z,5.14
2023-03-08T03:46:32.489Z,5.07
2023-03-08T03:48:59.587Z,5.09
2023-03-08T03:51:26.313Z,5.07
2023-03-08T03:53:53.140Z,5.07
2023-03-08T03:56:21.262Z,5.08
2023-03-08T03:58:48.487Z,5.07
2023-03-08T04:01:18.408Z,5.06
2023-03-08T04:03:45.181Z,5.04
2023-03-08T04:06:14.360Z,5.04
2023-03-08T04:08:42.726Z,5.01
2023-03-08T04:11:10.310Z,4.98
2023-03-08T04:13:37.614Z,4.92
2023-03-08T04:16:07.672Z,4.90
2023-03-08T04:18:34.392Z,4.89
2023-03-08T04:21:01.161Z,4.88
2023-03-08T04:23:27.946Z,4.88
2023-03-08T04:25:54.799Z,4.84
2023-03-08T04:28:21.674Z,4.83
2023-03-08T04:30:48.355Z,4.81
2023-03-08T04:33:15.104Z,4.77
2023-03-08T04:35:42.023Z,4.78
2023-03-08T04:38:08.784Z,4.73
2023-03-08T04:40:57.872Z,4.69
2023-03-08T04:43:24.990Z,4.69
2023-03-08T04:45:51.785Z,4.68
2023-03-08T04:48:18.572Z,4.71
2023-03-08T04:50:45.349Z,4.68
2023-03-08T04:53:12.155Z,4.65
2023-03-08T04:55:39.139Z,4.59
2023-03-08T04:58:06.103Z,4.61
2023-03-08T05:00:32.787Z,4.55
2023-03-08T05:02:59.513Z,4.51
2023-03-08T05:05:26.317Z,4.50
2023-03-08T05:07:53.749Z,4.49
2023-03-08T05:10:20.549Z,4.48
2023-03-08T05:12:49.799Z,4.48
2023-03-08T05:15:16.634Z,4.47
2023-03-08T05:17:43.519Z,4.44
2023-03-08T05:20:10.838Z,4.44
2023-03-08T05:22:55.095Z,4.43
2023-03-08T05:25:24.253Z,4.41
2023-03-08T05:27:51.028Z,4.35
2023-03-08T05:30:21.028Z,4.36
2023-03-08T05:32:48.002Z,4.36
2023-03-08T05:35:14.996Z,4.35
2023-03-08T05:37:41.815Z,4.35
2023-03-08T05:40:08.985Z,4.36
2023-03-08T05:42:35.775Z,4.32
2023-03-08T05:45:02.872Z,4.30
2023-03-08T05:47:30.556Z,4.30
2023-03-08T05:49:57.345Z,4.26
2023-03-08T05:52:24.082Z,4.25
2023-03-08T05:54:50.900Z,4.23
2023-03-08T05:57:17.823Z,4.21
2023-03-08T05:59:44.577Z,4.19
2023-03-08T06:02:13.565Z,4.15
2023-03-08T06:04:40.392Z,4.16
2023-03-08T06:07:07.251Z,4.17
2023-03-08T06:09:34.283Z,4.16
2023-03-08T06:12:01.020Z,4.11
2023-03-08T06:14:27.791Z,4.15
2023-03-08T06:16:54.645Z,4.17
2023-03-08T06:19:21.587Z,4.18
2023-03-08T06:21:48.532Z,4.19
2023-03-08T06:24:15.302Z,4.15
2023-03-08T06:26:42.333Z,4.18
2023-03-08T06:29:09.333Z,4.15
2023-03-08T06:31:36.172Z,4.14
2023-03-08T06:34:03.834Z,4.11
2023-03-08T06:36:30.666Z,4.08
2023-03-08T06:39:00.008Z,4.09
2023-03-08T06:41:26.856Z,4.12
2023-03-08T06:43:53.868Z,4.09
2023-03-08T06:46:20.811Z,4.05
2023-03-08T06:48:48.565Z,4.05
2023-03-08T06:51:15.612Z,4.10
2023-03-08T06:53:42.665Z,4.12
2023-03-08T06:56:10.029Z,4.22
2023-03-08T06:58:37.313Z,4.22
2023-03-08T07:01:05.955Z,4.27
2023-03-08T07:03:33.497Z,4.29
2023-03-08T07:06:00.845Z,4.34
2023-03-08T07:08:27.948Z,4.34
2023-03-08T07:10:54.876Z,4.35
2023-03-08T07:13:24.134Z,4.32
2023-03-08T07:15:51.900Z,4.30
2023-03-08T07:18:19.785Z,4.27
2023-03-08T07:20:46.655Z,4.24
2023-03-08T07:23:13.768Z,4.24
2023-03-08T07:25:40.644Z,4.25
2023-03-08T07:28:07.553Z,4.25
2023-03-08T07:30:34.417Z,4.32
2023-03-08T07:33:01.443Z,4.30
2023-03-08T07:35:28.472Z,4.33
2023-03-08T07:37:55.330Z,4.37
2023-03-08T07:40:22.350Z,4.37
2023-03-08T07:42:49.279Z,4.40
2023-03-08T07:45:16.250Z,4.42
2023-03-08T07:47:43.147Z,4.45
2023-03-08T07:50:10.703Z,4.49
2023-03-08T07:52:37.698Z,4.49
2023-03-08T07:55:05.043Z,4.52
2023-03-08T07:57:31.936Z,4.52
2023-03-08T07:59:58.967Z,4.54
2023-03-08T08:02:25.967Z,4.54
2023-03-08T08:04:52.911Z,4.58
2023-03-08T08:07:19.861Z,4.59
2023-03-08T08:09:46.709Z,4.61
2023-03-08T08:12:13.674Z,4.63
2023-03-08T08:14:40.776Z,4.57
2023-03-08T08:17:07.807Z,4.56
2023-03-08T08:19:37.724Z,4.55
2023-03-08T08:22:05.154Z,4.59
2023-03-08T08:24:33.098Z,4.56
2023-03-08T08:27:00.085Z,4.57
2023-03-08T08:29:27.162Z,4.62
2023-03-08T08:31:54.108Z,4.63
2023-03-08T08:34:23.650Z,4.67
2023-03-08T08:36:52.144Z,4.73
2023-03-08T08:39:29.880Z,4.75
2023-03-08T08:41:59.503Z,4.74
2023-03-08T08:44:28.351Z,4.73
2023-03-08T08:47:02.282Z,4.72
2023-03-08T08:49:29.615Z,4.69
2023-03-08T08:51:56.684Z,4.70
2023-03-08T08:54:23.679Z,4.66
2023-03-08T08:56:50.782Z,4.67
2023-03-08T08:59:17.874Z,4.69
2023-03-08T09:01:45.176Z,4.65
2023-03-08T09:04:13.858Z,4.66
2023-03-08T09:06:40.995Z,4.72
2023-03-08T09:09:08.528Z,4.77
2023-03-08T09:11:39.879Z,4.83
2023-03-08T09:14:12.339Z,4.84
2023-03-08T09:16:39.440Z,4.88
2023-03-08T09:19:06.620Z,4.96
2023-03-08T09:21:34.350Z,4.92
2023-03-08T09:24:04.010Z,5.00
2023-03-08T09:26:31.656Z,5.04
2023-03-08T09:28:59.501Z,4.99
2023-03-08T09:31:26.451Z,5.00
2023-03-08T09:33:53.621Z,5.00
2023-03-08T09:36:20.638Z,5.01
2023-03-08T09:38:48.823Z,4.98
2023-03-08T09:41:18.818Z,5.00
2023-03-08T09:43:47.988Z,5.02
2023-03-08T09:46:17.338Z,5.01
2023-03-08T09:48:47.547Z,5.03
2023-03-08T09:51:17.706Z,5.07
2023-03-08T09:53:51.233Z,5.06
2023-03-08T09:56:21.580Z,5.05
2023-03-08T09:58:49.989Z,5.04
2023-03-08T10:01:18.424Z,5.02
2023-03-08T10:03:50.566Z,5.00
2023-03-08T10:06:23.508Z,5.02
2023-03-08T10:08:56.549Z,5.00
2023-03-08T10:11:26.758Z,5.00
2023-03-08T10:13:56.589Z,5.01
2023-03-08T10:16:26.413Z,5.02
2023-03-08T10:18:56.642Z,5.07
2023-03-08T10:21:25.360Z,5.11
2023-03-08T10:23:59.332Z,5.14
2023-03-08T10:26:27.201Z,5.18
2023-03-08T10:28:54.383Z,5.19
2023-03-08T10:31:21.745Z,5.21
2023-03-08T10:33:50.664Z,5.22
2023-03-08T10:36:20.596Z,5.22
2023-03-08T10:38:50.688Z,5.15
2023-03-08T10:41:18.003Z,5.17
2023-03-08T10:43:46.388Z,5.18
2023-03-08T10:46:15.308Z,5.17
2023-03-08T10:48:42.358Z,5.22
2023-03-08T10:51:12.399Z,5.23
2023-03-08T10:53:39.498Z,5.26
2023-03-08T10:56:22.040Z,5.29
2023-03-08T10:58:49.381Z,5.31
2023-03-08T11:01:19.407Z,5.30
2023-03-08T11:03:47.015Z,5.30
2023-03-08T11:06:15.122Z,5.31
2023-03-08T11:08:52.448Z,5.34
2023-03-08T11:11:19.470Z,5.39
2023-03-08T11:13:48.713Z,5.40
2023-03-08T11:16:18.900Z,5.34
2023-03-08T11:18:49.074Z,5.31
2023-03-08T11:21:21.893Z,5.36
2023-03-08T11:23:56.628Z,5.42
2023-03-08T11:26:28.448Z,5.48
2023-03-08T11:28:58.552Z,5.49
2023-03-08T11:31:30.406Z,5.52
2023-03-08T11:33:57.718Z,5.55
2023-03-08T11:36:27.698Z,5.56
2023-03-08T11:38:58.179Z,5.56
2023-03-08T11:41:32.356Z,5.55
2023-03-08T11:44:06.974Z,5.56
2023-03-08T11:46:37.163Z,5.56
2023-03-08T11:49:04.776Z,5.54
2023-03-08T11:51:34.790Z,5.47
2023-03-08T11:54:04.878Z,5.46
2023-03-08T11:56:39.732Z,5.44
2023-03-08T11:59:13.757Z,5.38
2023-03-08T12:01:45.731Z,5.37
2023-03-08T12:04:15.810Z,5.39
2023-03-08T12:06:44.112Z,5.40
2023-03-08T12:09:12.583Z,5.43
2023-03-08T12:11:42.756Z,5.52
2023-03-08T12:14:13.715Z,5.59
2023-03-08T12:16:47.445Z,5.67
2023-03-08T12:19:17.622Z,5.74
2023-03-08T12:21:49.865Z,5.79
2023-03-08T12:24:20.329Z,5.79
2023-03-08T12:26:50.877Z,5.83
2023-03-08T12:29:23.704Z,5.85
2023-03-08T12:31:51.370Z,5.83
2023-03-08T12:34:21.415Z,5.80
2023-03-08T12:36:48.459Z,5.79
2023-03-08T12:39:18.583Z,5.76
2023-03-08T12:41:56.525Z,5.67
2023-03-08T12:44:25.344Z,5.66
2023-03-08T12:47:02.672Z,5.69
2023-03-08T12:49:33.619Z,5.69
2023-03-08T12:52:02.458Z,5.69
2023-03-08T12:54:31.564Z,5.68
2023-03-08T12:56:58.680Z,5.68
2023-03-08T12:59:28.638Z,5.68
2023-03-08T13:02:03.492Z,5.66
2023-03-08T13:04:41.007Z,5.62
2023-03-08T13:07:16.734Z,5.49
2023-03-08T13:09:47.201Z,5.51
2023-03-08T13:12:17.281Z,5.50
2023-03-08T13:14:45.777Z,5.45
2023-03-08T13:17:15.761Z,5.43
2023-03-08T13:19:42.762Z,5.44
2023-03-08T13:22:16.553Z,5.48
2023-03-08T13:24:47.860Z,5.46
2023-03-08T13:27:18.078Z,5.43
2023-03-08T13:29:45.330Z,5.41
2023-03-08T13:32:15.668Z,5.40
2023-03-08T13:34:45.722Z,5.44
2023-03-08T13:37:15.783Z,5.42
2023-03-08T13:39:51.805Z,5.44
2023-03-08T13:42:24.897Z,5.47
2023-03-08T13:44:52.780Z,5.43
2023-03-08T13:47:20.115Z,5.40
2023-03-08T13:49:48.314Z,5.44
2023-03-08T13:52:19.541Z,5.47
2023-03-08T13:54:49.761Z,5.48
2023-03-08T13:57:19.691Z,5.51
2023-03-08T13:59:48.937Z,5.53
2023-03-08T14:02:19.597Z,5.63
2023-03-08T14:04:46.547Z,5.64
2023-03-08T14:07:20.888Z,5.59
2023-03-08T14:09:47.975Z,5.58
2023-03-08T14:12:17.505Z,5.63
2023-03-08T14:14:47.278Z,5.67
2023-03-08T14:17:17.464Z,5.73
2023-03-08T14:19:44.702Z,5.71
2023-03-08T14:22:14.507Z,5.74
2023-03-08T14:24:42.221Z,5.71
2023-03-08T14:27:12.288Z,5.73
2023-03-08T14:29:39.273Z,5.63
2023-03-08T14:32:09.767Z,5.65
2023-03-08T14:34:39.804Z,5.67
2023-03-08T14:37:07.159Z,5.60
2023-03-08T14:39:35.211Z,5.56
2023-03-08T14:42:05.284Z,5.54
2023-03-08T14:44:32.450Z,5.59
2023-03-08T14:47:08.672Z,5.60
2023-03-08T14:49:35.838Z,5.58
2023-03-08T14:52:03.248Z,5.60
2023-03-08T14:54:33.412Z,5.62
2023-03-08T14:57:02.968Z,5.62
2023-03-08T14:59:30.062Z,5.58
2023-03-08T15:01:57.138Z,5.58
2023-03-08T15:04:25.916Z,5.58
2023-03-08T15:06:54.169Z,5.59
2023-03-08T15:09:22.194Z,5.61
2023-03-08T15:11:50.163Z,5.61
2023-03-08T15:14:17.964Z,5.63
2023-03-08T15:16:44.938Z,5.69
2023-03-08T15:19:14.301Z,5.67
2023-03-08T15:21:41.726Z,5.71
2023-03-08T15:24:14.224Z,5.75
2023-03-08T15:26:41.224Z,5.74
2023-03-08T15:29:11.689Z,5.68
2023-03-08T15:31:38.724Z,5.67
2023-03-08T15:34:05.705Z,5.66
2023-03-08T15:36:35.922Z,5.70
2023-03-08T15:39:04.892Z,5.72
2023-03-08T15:41:32.040Z,5.69
2023-03-08T15:43:59.005Z,5.70
2023-03-08T15:46:26.015Z,5.68
2023-03-08T15:48:52.936Z,5.65
2023-03-08T15:51:21.469Z,5.62
2023-03-08T15:53:49.411Z,5.57
2023-03-08T15:56:16.592Z,5.54
2023-03-08T15:58:43.488Z,5.51
2023-03-08T16:01:12.171Z,5.56
2023-03-08T16:03:39.225Z,5.54
2023-03-08T16:06:09.422Z,5.57
2023-03-08T16:08:36.926Z,5.57
2023-03-08T16:11:07.312Z,5.59
2023-03-08T16:13:34.232Z,5.66
2023-03-08T16:16:01.994Z,5.63
2023-03-08T16:18:30.262Z,5.63
2023-03-08T16:20:57.891Z,5.63
2023-03-08T16:23:25.127Z,5.64
2023-03-08T16:26:00.230Z,5.69
2023-03-08T16:28:35.669Z,5.69
2023-03-08T16:31:02.657Z,5.68
2023-03-08T16:33:29.692Z,5.67
2023-03-08T16:35:57.017Z,5.66
2023-03-08T16:38:24.380Z,5.60
2023-03-08T16:40:55.614Z,5.58
2023-03-08T16:43:37.313Z,5.58
2023-03-08T16:46:08.047Z,5.63
2023-03-08T16:48:35.270Z,5.53
2023-03-08T16:51:02.256Z,5.51
2023-03-08T16:53:30.219Z,5.41
2023-03-08T16:56:00.461Z,5.42
2023-03-08T16:58:28.316Z,5.39
2023-03-08T17:00:56.221Z,5.39
2023-03-08T17:03:26.557Z,5.41
2023-03-08T17:05:53.686Z,5.43
2023-03-08T17:08:20.707Z,5.46
2023-03-08T17:10:48.258Z,5.42
2023-03-08T17:13:15.478Z,5.35
2023-03-08T17:15:47.245Z,5.34
2023-03-08T17:18:14.908Z,5.31
2023-03-08T17:20:42.403Z,5.34
2023-03-08T17:23:10.129Z,5.33
2023-03-08T17:25:40.904Z,5.34
2023-03-08T17:28:08.466Z,5.32
2023-03-08T17:30:35.376Z,5.27
2023-03-08T17:33:02.539Z,5.27
2023-03-08T17:38:01.345Z,5.28
2023-03-08T17:40:30.386Z,5.31
2023-03-08T17:43:01.225Z,5.36
2023-03-08T17:45:30.652Z,5.35
2023-03-08T17:48:03.413Z,5.31
2023-03-08T17:50:32.219Z,5.29
2023-03-08T17:53:01.378Z,5.31
2023-03-08T17:55:30.111Z,5.31
2023-03-08T17:58:02.926Z,5.24
2023-03-08T18:00:32.173Z,5.27
2023-03-08T18:03:05.165Z,5.23
2023-03-08T18:05:34.515Z,5.23
2023-03-08T18:08:02.681Z,5.16
2023-03-08T18:10:31.209Z,5.21
2023-03-08T18:12:59.839Z,5.26
2023-03-08T18:15:27.916Z,5.31
2023-03-08T18:17:56.083Z,5.35
2023-03-08T18:20:27.498Z,5.39
2023-03-08T18:22:55.457Z,5.42
2023-03-08T18:25:25.096Z,5.42
2023-03-08T18:27:53.554Z,5.42
2023-03-08T18:30:26.191Z,5.44
2023-03-08T18:32:55.394Z,5.42
2023-03-08T18:35:24.062Z,5.45
2023-03-08T18:37:52.791Z,5.39
2023-03-08T18:40:21.041Z,5.38
2023-03-08T18:42:48.931Z,5.39
2023-03-08T18:45:18.966Z,5.37
2023-03-08T18:47:49.937Z,5.35
2023-03-08T18:50:19.728Z,5.37
2023-03-08T18:52:47.828Z,5.42
2023-03-08T18:55:28.928Z,5.42
2023-03-08T18:57:56.995Z,5.42
2023-03-08T19:00:25.373Z,5.41
2023-03-08T19:02:54.277Z,5.43
2023-03-08T19:05:23.752Z,5.40
2023-03-08T19:07:54.734Z,5.37
2023-03-08T19:10:22.792Z,5.40
2023-03-08T19:12:50.837Z,5.42
2023-03-08T19:15:19.909Z,5.49
2023-03-08T19:17:48.225Z,5.51
2023-03-08T19:20:16.333Z,5.53
2023-03-08T19:22:44.205Z,5.50
2023-03-08T19:25:12.972Z,5.42
2023-03-08T19:27:40.932Z,5.43
2023-03-08T19:30:09.325Z,5.43
2023-03-08T19:32:37.209Z,5.46
2023-03-08T19:35:05.315Z,5.46
2023-03-08T19:37:33.370Z,5.48
2023-03-08T19:40:01.592Z,5.47
2023-03-08T19:42:29.576Z,5.49
2023-03-08T19:44:57.488Z,5.46
2023-03-08T19:47:25.584Z,5.47
2023-03-08T19:49:54.690Z,5.45
2023-03-08T19:52:22.533Z,5.46
2023-03-08T19:54:50.983Z,5.44
2023-03-08T19:57:19.229Z,5.45
2023-03-08T19:59:47.093Z,5.42
2023-03-08T20:02:15.194Z,5.43
2023-03-08T20:04:43.325Z,5.43
2023-03-08T20:07:11.270Z,5.46
2023-03-08T20:09:41.906Z,5.47
2023-03-08T20:12:10.154Z,5.51
2023-03-08T20:14:38.321Z,5.57
2023-03-08T20:17:08.755Z,5.56
2023-03-08T20:19:41.397Z,5.56
2023-03-08T20:22:09.299Z,5.53
2023-03-08T20:24:37.621Z,5.52
2023-03-08T20:27:06.190Z,5.54
2023-03-08T20:29:35.172Z,5.53
2023-03-08T20:32:03.448Z,5.53
2023-03-08T20:34:33.040Z,5.56
2023-03-08T20:37:01.576Z,5.57
2023-03-08T20:39:29.658Z,5.58
2023-03-08T20:41:59.221Z,5.58
2023-03-08T20:44:27.241Z,5.62
2023-03-08T20:46:56.404Z,5.64
2023-03-08T20:49:25.189Z,5.67
2023-03-08T20:51:53.180Z,5.74
2023-03-08T20:54:21.632Z,5.74
2023-03-08T20:56:49.653Z,5.75
2023-03-08T20:59:21.067Z,5.76
2023-03-08T21:01:49.070Z,5.75
2023-03-08T21:04:17.154Z,5.76
2023-03-08T21:06:45.358Z,5.76
2023-03-08T21:09:13.495Z,5.74
2023-03-08T21:11:41.986Z,5.69
2023-03-08T21:14:11.130Z,5.71
2023-03-08T21:16:41.011Z,5.71
2023-03-08T21:19:09.821Z,5.72
2023-03-08T21:21:44.260Z,5.74
2023-03-08T21:24:13.983Z,5.72
2023-03-08T21:26:42.218Z,5.76
2023-03-08T21:29:12.365Z,5.76
2023-03-08T21:31:42.699Z,5.75
2023-03-08T21:34:12.638Z,5.73
2023-03-08T21:36:41.049Z,5.72
2023-03-08T21:39:10.162Z,5.71
2023-03-08T21:41:39.276Z,5.73
2023-03-08T21:44:10.167Z,5.76
2023-03-08T21:46:38.816Z,5.74
2023-03-08T21:49:07.276Z,5.74
2023-03-08T21:51:35.229Z,5.75
2023-03-08T21:54:03.171Z,5.82
2023-03-08T21:56:31.237Z,5.85
2023-03-08T21:58:59.260Z,5.83
2023-03-08T22:01:28.194Z,5.86
2023-03-08T22:03:56.610Z,5.85
2023-03-08T22:06:25.039Z,5.85
2023-03-08T22:08:53.735Z,5.82
2023-03-08T22:11:21.982Z,5.84
2023-03-08T22:13:52.131Z,5.84
2023-03-08T22:16:20.701Z,5.84
2023-03-08T22:18:49.583Z,5.85
2023-03-08T22:21:17.661Z,5.83
2023-03-08T22:23:45.458Z,5.83
2023-03-08T22:26:14.626Z,5.85
2023-03-08T22:28:42.609Z,5.87
2023-03-08T22:31:13.599Z,5.89
2023-03-08T22:33:41.566Z,5.86
2023-03-08T22:36:10.396Z,5.86
2023-03-08T22:38:38.915Z,5.81
2023-03-08T22:41:09.771Z,5.76
2023-03-08T22:43:37.965Z,5.73
2023-03-08T22:46:06.877Z,5.73
2023-03-08T22:48:34.744Z,5.70
2023-03-08T22:51:10.687Z,5.68
2023-03-08T22:53:39.445Z,5.68
2023-03-08T22:56:08.367Z,5.67
2023-03-08T22:58:35.940Z,5.68
2023-03-08T23:01:03.549Z,5.65
2023-03-08T23:03:32.155Z,5.65
2023-03-08T23:05:59.646Z,5.68
2023-03-08T23:08:28.283Z,5.67
2023-03-08T23:10:55.754Z,5.67
2023-03-08T23:13:33.338Z,5.68
2023-03-08T23:16:01.167Z,5.71
2023-03-08T23:18:28.535Z,5.71
2023-03-08T23:20:56.030Z,5.70
2023-03-08T23:23:25.508Z,5.74
2023-03-08T23:25:52.953Z,5.72
2023-03-08T23:28:21.302Z,5.71
2023-03-08T23:30:48.402Z,5.69
2023-03-08T23:33:15.871Z,5.68
2023-03-08T23:35:42.981Z,5.62
2023-03-08T23:38:10.228Z,5.60
2023-03-08T23:40:39.942Z,5.55
2023-03-08T23:43:07.800Z,5.49
2023-03-08T23:45:34.857Z,5.49
2023-03-08T23:48:03.414Z,5.46
2023-03-08T23:50:30.920Z,5.36
2023-03-08T23:52:57.990Z,5.26
2023-03-08T23:55:25.000Z,5.24
2023-03-08T23:57:51.975Z,5.20
